Time;durP1;ratioP1;P1;durP2;ratioP2;P2;SDS_P1;SDS_P2;PMS_P1;PMS_P2;Temp;Humidity;BMP_temperature;BMP_pressure;BME280_temperature;BME280_humidity;BME280_pressure;Samples;Min_cycle;Max_cycle;Signal;HPM_P1;HPM_P2
2021/04/19 00:01:38;;;;;;;68.18;32.90;;;;;;;10.95;67.83;100347.56;3577977;40;20313;-69
2021/04/19 00:04:04;;;;;;;70.32;36.72;;;;;;;10.88;68.11;100338.22;3579076;40;20368;-69
2021/04/19 00:06:31;;;;;;;76.35;37.10;;;;;;;10.81;68.24;100321.00;3578511;40;20067;-69
2021/04/19 00:08:58;;;;;;;80.43;37.92;;;;;;;10.80;68.29;100319.28;3579086;40;20304;-69
2021/04/19 00:11:24;;;;;;;75.07;35.40;;;;;;;10.79;68.20;100317.56;3578329;40;20033;-68
2021/04/19 00:13:51;;;;;;;64.82;34.63;;;;;;;10.79;68.27;100328.06;3578819;40;20118;-68
2021/04/19 00:16:17;;;;;;;65.47;34.90;;;;;;;10.75;68.47;100324.72;3578214;40;20033;-70
2021/04/19 00:18:43;;;;;;;71.15;37.47;;;;;;;10.72;68.50;100316.97;3578924;40;20069;-68
2021/04/19 00:21:10;;;;;;;64.47;34.60;;;;;;;10.66;68.58;100319.84;3578631;40;20039;-69
2021/04/19 00:23:36;;;;;;;65.32;32.85;;;;;;;10.60;68.61;100307.78;3578158;40;20040;-69
2021/04/19 00:26:04;;;;;;;66.78;32.13;;;;;;;10.48;68.78;100291.69;3578149;40;20029;-69
2021/04/19 00:28:30;;;;;;;63.55;30.70;;;;;;;10.41;69.18;100288.44;3578545;40;20041;-69
2021/04/19 00:30:57;;;;;;;57.55;29.75;;;;;;;10.38;69.28;100294.63;3578199;40;20033;-69
2021/04/19 00:33:24;;;;;;;62.67;29.85;;;;;;;10.35;69.55;100286.03;3578466;40;20051;-68
2021/04/19 00:35:51;;;;;;;56.60;28.75;;;;;;;10.31;69.27;100284.44;3578582;40;20029;-68
2021/04/19 00:38:20;;;;;;;56.50;28.52;;;;;;;10.28;69.30;100279.31;3578074;40;20048;-69
2021/04/19 00:40:46;;;;;;;61.88;28.15;;;;;;;10.26;69.45;100268.88;3578145;40;20044;-68
2021/04/19 00:43:14;;;;;;;57.72;28.05;;;;;;;10.24;69.71;100273.34;3578335;40;20224;-68
2021/04/19 00:45:41;;;;;;;53.03;27.65;;;;;;;10.26;69.86;100275.88;3578182;40;20067;-69
2021/04/19 00:48:11;;;;;;;50.30;25.88;;;;;;;10.28;69.72;100274.91;3578269;40;20301;-68
2021/04/19 00:50:37;;;;;;;52.50;26.63;;;;;;;10.31;69.52;100280.03;3578092;40;20029;-68
2021/04/19 00:53:05;;;;;;;58.28;28.35;;;;;;;10.35;69.46;100280.78;3578160;40;20053;-68
2021/04/19 00:55:32;;;;;;;57.50;26.63;;;;;;;10.41;69.47;100258.72;3578014;40;20056;-68
2021/04/19 00:58:00;;;;;;;49.25;26.63;;;;;;;10.46;69.53;100246.31;3578146;40;20033;-68
2021/04/19 01:00:31;;;;;;;63.20;31.10;;;;;;;10.46;69.50;100235.84;3577967;40;20033;-68
2021/04/19 01:02:58;;;;;;;59.42;29.63;;;;;;;10.39;69.62;100257.03;3579179;40;20037;-68
2021/04/19 01:05:28;;;;;;;56.60;29.40;;;;;;;10.35;69.87;100272.91;3579549;40;20029;-67
2021/04/19 01:07:54;;;;;;;58.10;29.10;;;;;;;10.38;69.76;100265.78;3579548;40;20041;-69
2021/04/19 01:10:21;;;;;;;59.72;28.88;;;;;;;10.41;69.87;100263.97;3579616;40;20033;-68
2021/04/19 01:12:48;;;;;;;53.33;26.65;;;;;;;10.44;69.90;100275.22;3579472;40;20044;-68
2021/04/19 01:15:15;;;;;;;58.60;28.73;;;;;;;10.46;69.71;100289.13;3579436;40;20310;-68
2021/04/19 01:17:43;;;;;;;62.45;29.02;;;;;;;10.47;69.81;100303.94;3579581;40;20033;-68
2021/04/19 01:20:13;;;;;;;55.95;27.30;;;;;;;10.47;69.85;100303.94;3579361;40;20029;-69
2021/04/19 01:22:40;;;;;;;58.50;28.50;;;;;;;10.48;69.95;100307.41;3579362;40;20132;-69
2021/04/19 01:25:08;;;;;;;53.65;26.80;;;;;;;10.52;69.95;100314.22;3579334;40;20301;-69
2021/04/19 01:27:35;;;;;;;49.50;27.80;;;;;;;10.51;69.92;100313.38;3579474;40;20036;-68
2021/04/19 01:30:02;;;;;;;56.15;28.60;;;;;;;10.50;69.78;100314.28;3580078;40;20048;-68
2021/04/19 01:32:32;;;;;;;54.47;28.08;;;;;;;10.52;69.94;100315.09;3579404;40;20056;-68
2021/04/19 01:34:59;;;;;;;55.95;28.50;;;;;;;10.53;69.90;100308.94;3579705;40;20040;-68
2021/04/19 01:37:25;;;;;;;58.47;27.52;;;;;;;10.57;69.85;100318.38;3579260;40;20040;-68
2021/04/19 01:39:53;;;;;;;64.47;28.50;;;;;;;10.56;69.78;100324.53;3579423;40;20037;-68
2021/04/19 01:42:19;;;;;;;56.65;29.35;;;;;;;10.54;69.91;100321.13;3579163;40;20029;-68
2021/04/19 01:44:46;;;;;;;65.40;30.80;;;;;;;10.54;69.95;100320.28;3577456;40;20382;-68
2021/04/19 01:47:13;;;;;;;59.50;28.02;;;;;;;10.54;69.99;100329.00;3578081;40;20033;-68
2021/04/19 01:49:40;;;;;;;63.65;29.83;;;;;;;10.51;70.16;100323.88;3578622;40;20040;-67
2021/04/19 01:52:07;;;;;;;65.25;30.25;;;;;;;10.45;70.30;100318.84;3579563;40;20412;-69
2021/04/19 01:54:33;;;;;;;60.28;30.13;;;;;;;10.37;70.37;100310.41;3579799;40;20051;-68
2021/04/19 01:57:01;;;;;;;61.80;29.90;;;;;;;10.28;70.51;100310.75;3579254;40;20040;-68
2021/04/19 01:59:29;;;;;;;67.90;32.40;;;;;;;10.23;70.53;100303.06;3580031;40;20344;-68
2021/04/19 02:02:05;;;;;;;76.70;32.45;;;;;;;10.18;70.52;100290.97;3579289;40;20045;-69
2021/04/19 02:04:40;;;;;;;75.85;37.25;;;;;;;10.13;70.55;100291.16;3579194;40;20064;-68
2021/04/19 02:07:13;;;;;;;82.88;37.15;;;;;;;10.08;70.68;100290.47;3579178;40;20418;-68
2021/04/19 02:09:49;;;;;;;77.95;38.53;;;;;;;10.00;70.58;100290.75;3578682;40;20077;-68
2021/04/19 02:12:28;;;;;;;92.82;39.47;;;;;;;9.98;70.76;100291.69;3578563;40;20033;-69
2021/04/19 02:15:05;;;;;;;88.35;39.33;;;;;;;9.96;70.54;100289.13;3577958;40;20266;-68
2021/04/19 02:17:41;;;;;;;90.15;40.15;;;;;;;9.90;70.58;100283.25;3579462;40;20087;-68
2021/04/19 02:20:13;;;;;;;80.97;39.08;;;;;;;9.80;70.61;100287.97;3579111;40;20111;-68
2021/04/19 02:22:43;;;;;;;82.03;38.15;;;;;;;9.76;70.73;100281.09;3579188;40;20029;-67
2021/04/19 02:25:18;;;;;;;91.03;38.80;;;;;;;9.67;70.79;100281.44;3579218;40;20057;-69
2021/04/19 02:27:49;;;;;;;84.65;38.55;;;;;;;9.63;70.70;100282.44;3579126;40;20041;-68
2021/04/19 02:30:18;;;;;;;92.18;41.17;;;;;;;9.59;70.71;100278.25;3579791;40;20305;-68
2021/04/19 02:32:47;;;;;;;90.28;39.40;;;;;;;9.52;70.80;100276.72;3578941;40;20041;-68
2021/04/19 02:35:18;;;;;;;108.63;44.20;;;;;;;9.41;70.88;100270.09;3579309;40;20029;-68
2021/04/19 02:37:47;;;;;;;92.70;42.50;;;;;;;9.36;70.87;100265.88;3579445;40;20049;-69
2021/04/19 02:40:15;;;;;;;114.28;43.05;;;;;;;9.25;70.87;100279.34;3578871;40;20405;-67
2021/04/19 02:42:45;;;;;;;126.47;45.60;;;;;;;9.16;71.05;100277.00;3579022;40;20297;-67
2021/04/19 02:45:14;;;;;;;103.07;42.13;;;;;;;9.07;71.11;100270.31;3579334;40;20044;-67
2021/04/19 02:47:43;;;;;;;105.80;43.95;;;;;;;9.01;71.09;100280.13;3577927;40;20025;-67
2021/04/19 02:50:14;;;;;;;115.70;42.17;;;;;;;8.90;71.28;100282.19;3578838;40;20037;-68
2021/04/19 02:52:41;;;;;;;109.70;42.95;;;;;;;8.82;71.22;100285.91;3579562;40;20103;-69
2021/04/19 02:55:10;;;;;;;103.47;39.70;;;;;;;8.74;71.21;100289.66;3579279;40;20037;-68
2021/04/19 02:57:45;;;;;;;105.47;41.58;;;;;;;8.66;71.20;100284.66;3579159;40;20030;-68
2021/04/19 03:00:14;;;;;;;113.07;41.17;;;;;;;8.60;71.25;100287.47;3578872;40;20041;-68
2021/04/19 03:02:44;;;;;;;130.60;42.42;;;;;;;8.52;71.23;100287.66;3578893;40;20380;-68
2021/04/19 03:05:13;;;;;;;111.13;40.97;;;;;;;8.44;71.41;100286.19;3578838;40;20025;-69
2021/04/19 03:07:45;;;;;;;116.75;42.33;;;;;;;8.38;71.62;100287.25;3578854;40;20386;-68
2021/04/19 03:10:16;;;;;;;106.00;39.17;;;;;;;8.34;71.79;100293.47;3579129;40;20067;-69
2021/04/19 03:12:52;;;;;;;112.93;41.65;;;;;;;8.29;71.59;100300.50;3578798;40;20390;-67
2021/04/19 03:15:25;;;;;;;129.80;44.75;;;;;;;8.23;71.63;100300.69;3579119;40;20025;-68
2021/04/19 03:17:55;;;;;;;108.05;40.50;;;;;;;8.19;71.78;100301.69;3578822;40;20045;-68
2021/04/19 03:20:24;;;;;;;116.90;44.80;;;;;;;8.13;71.75;100302.72;3579283;40;20025;-68
2021/04/19 03:22:52;;;;;;;117.05;41.90;;;;;;;8.07;72.22;100295.03;3578549;40;20037;-67
2021/04/19 03:25:20;;;;;;;107.20;42.42;;;;;;;8.05;71.92;100303.81;3578839;40;20029;-68
2021/04/19 03:27:50;;;;;;;102.38;40.28;;;;;;;7.99;72.12;100302.22;3578702;40;20044;-68
2021/04/19 03:30:18;;;;;;;104.43;41.67;;;;;;;7.96;71.81;100302.31;3578505;40;20138;-68
2021/04/19 03:32:49;;;;;;;109.57;41.80;;;;;;;7.93;72.00;100297.19;3578537;40;20056;-69
2021/04/19 03:35:20;;;;;;;114.60;40.15;;;;;;;7.93;71.89;100302.41;3578856;40;20033;-69
2021/04/19 03:37:47;;;;;;;135.25;46.60;;;;;;;7.97;71.59;100300.56;3579027;40;20044;-69
2021/04/19 03:40:19;;;;;;;144.90;51.70;;;;;;;8.01;71.79;100310.88;3579130;40;20029;-68
2021/04/19 03:42:51;;;;;;;208.60;59.65;;;;;;;8.08;71.90;100315.00;3578719;40;20397;-68
2021/04/19 03:45:19;;;;;;;268.00;64.50;;;;;;;8.17;71.61;100311.31;3578895;40;20126;-68
2021/04/19 03:47:48;;;;;;;329.67;70.47;;;;;;;8.20;71.65;100319.91;3578848;40;20048;-69
2021/04/19 03:50:17;;;;;;;248.45;61.95;;;;;;;8.25;71.76;100317.16;3578478;40;20115;-68
2021/04/19 03:52:49;;;;;;;253.43;60.78;;;;;;;8.30;71.72;100320.50;3578416;40;20065;-69
2021/04/19 03:55:15;;;;;;;;;;;;;;;8.53;70.95;100315.50;3579104;40;20401;-68
2021/04/19 03:57:45;;;;;;;382.33;78.10;;;;;;;8.49;71.11;100324.34;3578450;40;19932;-69
2021/04/19 04:00:14;;;;;;;373.08;79.38;;;;;;;8.55;71.12;100318.97;3578336;40;20037;-67
2021/04/19 04:02:44;;;;;;;378.80;81.07;;;;;;;8.65;71.27;100326.53;3578521;40;20033;-68
2021/04/19 04:05:13;;;;;;;251.35;65.40;;;;;;;8.74;71.44;100328.84;3579175;40;20040;-67
2021/04/19 04:07:40;;;;;;;333.10;69.13;;;;;;;8.82;71.28;100327.75;3577746;40;20029;-69
2021/04/19 04:10:09;;;;;;;266.15;61.97;;;;;;;8.93;71.07;100329.16;3578326;40;20310;-67
2021/04/19 04:12:36;;;;;;;302.77;63.67;;;;;;;9.06;71.05;100330.50;3578288;40;20394;-68
2021/04/19 04:15:05;;;;;;;245.75;57.30;;;;;;;9.18;70.85;100319.69;3578844;40;20041;-68
2021/04/19 04:17:32;;;;;;;206.00;52.20;;;;;;;9.32;70.72;100327.94;3578243;40;20417;-67
2021/04/19 04:19:59;;;;;;;218.48;53.42;;;;;;;9.43;70.70;100325.84;3578434;40;20022;-67
2021/04/19 04:22:26;;;;;;;197.23;51.50;;;;;;;9.50;70.70;100320.41;3578194;40;20037;-68
2021/04/19 04:24:54;;;;;;;320.55;63.85;;;;;;;9.59;70.56;100331.44;3578363;40;20422;-68
2021/04/19 04:27:20;;;;;;;190.63;50.60;;;;;;;9.67;70.62;100323.31;3577670;40;20278;-68
2021/04/19 04:29:47;;;;;;;224.35;59.28;;;;;;;9.79;70.21;100317.69;3579063;40;20068;-69
2021/04/19 04:32:13;;;;;;;213.15;59.35;;;;;;;9.96;69.97;100317.94;3570452;40;20097;-68
2021/04/19 04:34:40;;;;;;;212.38;56.85;;;;;;;10.15;69.58;100317.28;3567711;40;20033;-68
2021/04/19 04:37:07;;;;;;;210.20;54.35;;;;;;;10.31;69.27;100311.50;3568171;40;20037;-68
2021/04/19 04:39:34;;;;;;;215.50;53.60;;;;;;;10.48;69.20;100302.16;3577338;40;20048;-67
2021/04/19 04:42:04;;;;;;;256.92;58.20;;;;;;;10.58;69.17;100308.75;3570591;40;20037;-68
2021/04/19 04:44:34;;;;;;;199.77;51.05;;;;;;;10.64;69.21;100314.66;3574036;40;20040;-67
2021/04/19 04:47:11;;;;;;;236.68;52.40;;;;;;;10.73;69.21;100312.56;3569532;40;20492;-68
2021/04/19 04:49:44;;;;;;;235.20;63.65;;;;;;;10.83;69.24;100317.44;3573008;40;20101;-68
2021/04/19 04:52:13;;;;;;;308.05;63.25;;;;;;;10.83;69.29;100314.81;3572586;40;20029;-69
2021/04/19 04:54:44;;;;;;;255.18;57.97;;;;;;;10.86;69.71;100325.19;3574084;40;20036;-69
2021/04/19 04:57:13;;;;;;;286.33;70.07;;;;;;;10.97;69.72;100316.88;3572755;40;20159;-69
2021/04/19 04:59:41;;;;;;;325.95;70.78;;;;;;;11.01;69.56;100318.47;3568998;40;20034;-68
2021/04/19 05:02:10;;;;;;;333.35;73.57;;;;;;;11.10;69.61;100322.50;3566817;40;20038;-68
2021/04/19 05:04:36;;;;;;;317.45;70.28;;;;;;;11.23;69.26;100318.47;3568728;40;20045;-69
2021/04/19 05:07:03;;;;;;;183.80;59.22;;;;;;;11.33;69.21;100318.97;3568189;40;20032;-69
2021/04/19 05:09:30;;;;;;;120.75;41.15;;;;;;;11.37;69.11;100315.28;3568541;40;20038;-68
2021/04/19 05:11:57;;;;;;;138.60;38.75;;;;;;;11.37;69.17;100324.03;3574898;40;20096;-69
2021/04/19 05:14:27;;;;;;;107.90;36.40;;;;;;;11.54;68.82;100321.56;3578313;40;20091;-69
2021/04/19 05:16:53;;;;;;;121.20;39.25;;;;;;;11.63;68.58;100320.31;3577644;40;20033;-69
2021/04/19 05:19:20;;;;;;;105.47;35.08;;;;;;;11.80;68.17;100315.25;3560164;40;20061;-69
2021/04/19 05:21:47;;;;;;;93.43;37.03;;;;;;;11.99;67.77;100317.97;3577504;40;20037;-68
2021/04/19 05:24:13;;;;;;;116.40;36.90;;;;;;;12.08;67.39;100319.34;3571741;40;20317;-68
2021/04/19 05:26:39;;;;;;;68.35;31.92;;;;;;;12.25;67.14;100316.81;3571871;40;20626;-68
2021/04/19 05:29:07;;;;;;;65.05;29.15;;;;;;;12.57;66.22;100311.91;3570967;40;20053;-68
2021/04/19 05:31:33;;;;;;;43.85;26.92;;;;;;;12.89;65.29;100324.41;3571614;40;20029;-68
2021/04/19 05:34:00;;;;;;;43.90;22.35;;;;;;;13.27;64.72;100324.41;3573295;40;20037;-68
2021/04/19 05:36:27;;;;;;;39.20;22.92;;;;;;;13.70;63.43;100318.75;3575803;40;20045;-69
2021/04/19 05:38:54;;;;;;;32.83;21.60;;;;;;;13.95;63.05;100320.13;3577190;40;20037;-68
2021/04/19 05:41:21;;;;;;;36.80;21.05;;;;;;;14.59;61.90;100317.69;3577666;40;20049;-69
2021/04/19 05:43:48;;;;;;;30.08;20.10;;;;;;;15.10;60.43;100326.31;3578378;40;20033;-70
2021/04/19 05:46:17;;;;;;;31.33;21.38;;;;;;;14.74;61.21;100325.69;3577577;40;20036;-69
2021/04/19 05:48:44;;;;;;;34.40;22.45;;;;;;;14.22;62.52;100320.53;3578409;40;20052;-69
2021/04/19 05:51:27;;;;;;;35.13;22.05;;;;;;;14.08;62.62;100315.09;3578360;40;20384;-68
2021/04/19 05:53:55;;;;;;;31.35;21.00;;;;;;;14.92;60.57;100322.88;3579868;40;20041;-68
2021/04/19 05:56:33;;;;;;;31.98;22.38;;;;;;;16.03;57.61;100313.03;3579112;40;20033;-68
2021/04/19 05:59:06;;;;;;;32.00;20.77;;;;;;;17.18;55.28;100309.38;3579239;40;20044;-68
2021/04/19 06:01:37;;;;;;;28.88;19.13;;;;;;;17.42;54.23;100316.69;3579034;40;20460;-68
2021/04/19 06:04:11;;;;;;;26.48;18.55;;;;;;;17.24;55.20;100313.44;3579963;40;20037;-69
2021/04/19 06:06:43;;;;;;;24.83;17.83;;;;;;;17.00;55.60;100322.00;3587018;40;20037;-68
2021/04/19 06:09:15;;;;;;;27.27;18.42;;;;;;;17.10;56.12;100322.28;3579763;40;20069;-68
2021/04/19 06:11:44;;;;;;;26.35;17.95;;;;;;;17.57;54.30;100320.97;3586605;40;20077;-68
2021/04/19 06:14:13;;;;;;;27.00;19.00;;;;;;;18.70;51.87;100318.56;3579855;40;20064;-68
2021/04/19 06:16:42;;;;;;;27.15;18.88;;;;;;;19.74;49.78;100322.47;3579101;40;20037;-68
2021/04/19 06:19:11;;;;;;;23.40;16.85;;;;;;;20.92;46.42;100314.19;3578294;40;20045;-68
2021/04/19 06:21:39;;;;;;;22.98;15.77;;;;;;;21.99;43.89;100316.84;3579130;40;20279;-68
2021/04/19 06:24:07;;;;;;;24.20;15.15;;;;;;;21.51;44.14;100312.00;3579853;40;20041;-68
2021/04/19 06:26:34;;;;;;;21.98;15.68;;;;;;;20.74;45.34;100323.63;3578977;40;20036;-68
2021/04/19 06:29:01;;;;;;;23.15;16.00;;;;;;;20.21;46.44;100326.84;3579293;40;20056;-67
2021/04/19 06:31:28;;;;;;;22.15;15.60;;;;;;;19.75;47.40;100330.31;3579345;40;20037;-68
2021/04/19 06:34:04;;;;;;;22.00;17.42;;;;;;;19.18;47.92;100325.69;3579790;40;20048;-68
2021/04/19 06:36:33;;;;;;;35.15;19.35;;;;;;;19.15;48.01;100325.88;3578136;40;20036;-67
2021/04/19 06:38:59;;;;;;;33.33;20.13;;;;;;;19.19;47.53;100329.19;3579522;40;20048;-68
2021/04/19 06:41:26;;;;;;;33.33;19.40;;;;;;;19.13;47.55;100330.47;3579222;40;20033;-68
2021/04/19 06:43:53;;;;;;;35.08;19.40;;;;;;;19.06;47.42;100329.22;3579587;40;20037;-68
2021/04/19 06:46:19;;;;;;;30.40;18.23;;;;;;;18.49;48.73;100331.53;3579198;40;20092;-68
2021/04/19 06:48:48;;;;;;;21.63;16.88;;;;;;;17.97;48.93;100322.69;3586547;40;20092;-68
2021/04/19 06:51:16;;;;;;;24.33;16.77;;;;;;;17.80;49.57;100328.28;3578793;40;20029;-67
2021/04/19 06:53:42;;;;;;;23.65;17.30;;;;;;;18.04;49.23;100335.53;3579395;40;20041;-67
2021/04/19 06:56:13;;;;;;;24.33;17.20;;;;;;;18.80;47.17;100330.25;3578790;40;20040;-68
2021/04/19 06:58:42;;;;;;;27.40;18.70;;;;;;;20.68;43.70;100325.81;3578744;40;20041;-68
2021/04/19 07:01:09;;;;;;;21.77;16.63;;;;;;;23.57;38.47;100325.28;3578685;40;20043;-68
2021/04/19 07:03:39;;;;;;;19.10;15.05;;;;;;;25.12;35.64;100318.56;3579255;40;20036;-68
2021/04/19 07:06:06;;;;;;;17.37;14.10;;;;;;;24.80;36.17;100316.31;3579096;40;20033;-68
2021/04/19 07:08:43;;;;;;;19.17;14.30;;;;;;;24.60;36.00;100310.19;3579305;40;20741;-68
2021/04/19 07:11:11;;;;;;;17.80;14.38;;;;;;;26.62;32.94;100306.06;3573240;40;20031;-68
2021/04/19 07:13:38;;;;;;;17.95;14.30;;;;;;;28.27;30.41;100299.81;3571117;40;20297;-67
2021/04/19 07:16:06;;;;;;;18.25;16.25;;;;;;;29.90;28.27;100291.72;3570680;40;20038;-68
2021/04/19 07:18:34;;;;;;;17.55;14.05;;;;;;;31.26;26.13;100301.38;3574701;40;20041;-68
2021/04/19 07:21:01;;;;;;;18.67;14.82;;;;;;;32.48;25.40;100302.03;3572085;40;20037;-68
2021/04/19 07:23:27;;;;;;;16.83;14.07;;;;;;;33.56;23.94;100290.38;3575593;40;20394;-70
2021/04/19 07:25:54;;;;;;;14.52;13.02;;;;;;;34.44;22.99;100294.56;3574441;40;20045;-69
2021/04/19 07:28:21;;;;;;;15.77;12.43;;;;;;;35.50;21.62;100302.28;3576427;40;20038;-69
2021/04/19 07:30:58;;;;;;;14.55;12.93;;;;;;;36.36;20.79;100296.16;3578317;40;20441;-71
2021/04/19 07:33:26;;;;;;;13.60;12.25;;;;;;;37.32;19.37;100300.06;3573760;40;20048;-71
2021/04/19 07:35:52;;;;;;;15.43;13.07;;;;;;;37.54;19.37;100298.47;3576385;40;20120;-70
2021/04/19 07:38:30;;;;;;;14.45;11.40;;;;;;;37.23;19.28;100286.69;3573759;40;20043;-70
2021/04/19 07:40:58;;;;;;;14.75;12.70;;;;;;;36.82;19.69;100287.44;3575672;40;20115;-71
2021/04/19 07:43:25;;;;;;;13.10;11.27;;;;;;;36.52;19.39;100290.09;3575331;40;20045;-70
2021/04/19 07:46:02;;;;;;;12.57;10.75;;;;;;;35.74;19.83;100285.13;3574654;40;20410;-70
2021/04/19 07:48:30;;;;;;;13.98;11.63;;;;;;;35.05;20.80;100285.16;3574080;40;20393;-70
2021/04/19 07:50:57;;;;;;;14.43;11.43;;;;;;;36.00;19.68;100291.44;3573987;40;20045;-70
2021/04/19 07:53:23;;;;;;;13.95;10.38;;;;;;;36.64;18.90;100291.00;3575385;40;20049;-71
2021/04/19 07:55:55;;;;;;;13.25;9.80;;;;;;;37.38;18.30;100275.34;3574229;40;20041;-72
2021/04/19 07:58:25;;;;;;;11.90;10.70;;;;;;;38.44;16.87;100276.28;3572743;40;20041;-68
2021/04/19 08:01:01;;;;;;;11.45;9.98;;;;;;;38.30;17.33;100289.41;3573024;40;20037;-68
2021/04/19 08:03:36;;;;;;;14.20;10.00;;;;;;;38.05;17.37;100281.41;3571185;40;20269;-67
2021/04/19 08:06:16;;;;;;;16.30;11.02;;;;;;;37.81;17.64;100277.84;3574787;40;20083;-68
2021/04/19 08:08:43;;;;;;;10.18;9.10;;;;;;;38.52;16.24;100280.56;3575927;40;20126;-68
2021/04/19 08:11:11;;;;;;;10.18;9.05;;;;;;;39.96;14.83;100281.16;3576539;40;20044;-68
2021/04/19 08:13:39;;;;;;;10.65;9.35;;;;;;;40.49;14.78;100275.09;3572348;40;20390;-69
2021/04/19 08:16:16;;;;;;;11.77;8.88;;;;;;;40.81;15.05;100277.97;3575901;40;20400;-69
2021/04/19 08:18:45;;;;;;;11.27;8.20;;;;;;;41.54;14.11;100277.66;3573130;40;20051;-68
2021/04/19 08:21:12;;;;;;;8.82;7.93;;;;;;;41.77;13.24;100281.97;3575327;40;20372;-68
2021/04/19 08:23:39;;;;;;;9.07;8.02;;;;;;;41.81;13.14;100274.84;3575535;40;20055;-68
2021/04/19 08:26:06;;;;;;;12.13;8.98;;;;;;;41.77;13.34;100274.56;3575207;40;20374;-68
2021/04/19 08:28:43;;;;;;;12.00;9.25;;;;;;;41.80;12.92;100273.19;3574692;40;20130;-69
2021/04/19 08:31:11;;;;;;;12.50;8.75;;;;;;;41.78;12.93;100281.72;3575164;40;20038;-69
2021/04/19 08:33:39;;;;;;;10.40;8.50;;;;;;;42.39;12.52;100278.56;3575518;40;20039;-71
2021/04/19 08:36:08;;;;;;;12.77;8.57;;;;;;;43.36;12.09;100269.56;3574800;40;20119;-71
2021/04/19 08:38:35;;;;;;;12.35;9.25;;;;;;;43.86;11.74;100284.47;3575260;40;20048;-71
2021/04/19 08:41:02;;;;;;;9.32;8.13;;;;;;;43.16;12.55;100275.84;3575943;40;20033;-69
2021/04/19 08:43:30;;;;;;;9.52;8.38;;;;;;;41.87;13.14;100274.66;3573874;40;20388;-71
2021/04/19 08:45:58;;;;;;;11.18;8.88;;;;;;;41.10;13.41;100277.75;3574544;40;20089;-70
2021/04/19 08:48:25;;;;;;;11.13;9.13;;;;;;;41.13;12.90;100275.31;3573858;40;20037;-71
2021/04/19 08:50:53;;;;;;;9.73;8.27;;;;;;;40.87;13.17;100275.28;3572357;40;20033;-71
2021/04/19 08:53:20;;;;;;;12.07;9.15;;;;;;;40.23;13.71;100268.38;3575617;40;20045;-70
2021/04/19 08:55:49;;;;;;;14.07;9.27;;;;;;;40.76;13.96;100261.38;3581872;40;20111;-71
2021/04/19 08:58:18;;;;;;;9.68;7.93;;;;;;;40.52;13.05;100269.06;3582770;40;20053;-72
2021/04/19 09:00:46;;;;;;;10.75;8.00;;;;;;;40.94;12.85;100260.25;3575028;40;20049;-71
2021/04/19 09:03:17;;;;;;;12.65;8.05;;;;;;;39.07;14.56;100267.22;3573335;40;20037;-72
2021/04/19 09:05:43;;;;;;;8.98;7.38;;;;;;;37.31;15.65;100269.16;3575136;40;20033;-72
2021/04/19 09:08:13;;;;;;;8.57;7.10;;;;;;;37.71;14.87;100257.59;3574893;40;20296;-71
2021/04/19 09:10:51;;;;;;;10.07;7.40;;;;;;;38.35;14.76;100261.31;3575072;40;20048;-72
2021/04/19 09:13:28;;;;;;;10.35;8.05;;;;;;;38.28;14.69;100252.38;3574387;40;20295;-72
2021/04/19 09:15:55;;;;;;;10.43;8.75;;;;;;;37.83;14.55;100258.44;3573498;40;20034;-71
2021/04/19 09:18:23;;;;;;;9.57;7.60;;;;;;;38.76;14.49;100249.34;3571666;40;20036;-73
2021/04/19 09:20:54;;;;;;;8.65;7.75;;;;;;;38.44;14.13;100247.00;3575073;40;20045;-75
2021/04/19 09:23:26;;;;;;;9.98;7.28;;;;;;;37.53;15.08;100253.88;3576602;40;20057;-71
2021/04/19 09:25:53;;;;;;;9.18;8.25;;;;;;;37.26;14.78;100243.56;3576790;40;20073;-71
2021/04/19 09:28:53;;;;;;;9.52;8.45;;;;;;;34.97;16.95;100247.25;3574512;40;20064;-70
2021/04/19 09:32:03;;;;;;;9.35;7.40;;;;;;;34.40;17.54;100241.59;3577107;40;20114;-72
2021/04/19 09:34:41;;;;;;;15.68;10.05;;;;;;;35.18;16.49;100244.19;3565444;40;20037;-68
2021/04/19 09:37:08;;;;;;;9.52;8.52;;;;;;;35.21;16.60;100241.03;3573648;40;20043;-69
2021/04/19 09:39:46;;;;;;;9.23;8.02;;;;;;;36.33;15.50;100233.81;3576868;40;20072;-72
2021/04/19 09:42:13;;;;;;;9.13;7.70;;;;;;;37.26;14.76;100236.19;3578807;40;20039;-69
2021/04/19 09:44:50;;;;;;;9.88;8.88;;;;;;;35.12;16.35;100234.16;3578195;40;20083;-71
2021/04/19 09:47:48;;;;;;;9.35;7.82;;;;;;;35.09;16.67;100230.00;3577093;40;20088;-67
2021/04/19 09:50:17;;;;;;;10.65;8.65;;;;;;;33.78;17.81;100236.66;3552502;40;20037;-70
2021/04/19 09:52:47;;;;;;;12.43;9.07;;;;;;;31.63;20.04;100235.25;3569812;40;20036;-69
2021/04/19 09:55:16;;;;;;;9.32;7.65;;;;;;;29.95;21.53;100240.66;3576313;40;20118;-69
2021/04/19 09:57:43;;;;;;;7.70;6.90;;;;;;;28.27;22.86;100239.66;3577562;40;20045;-69
2021/04/19 10:00:10;;;;;;;8.70;7.45;;;;;;;26.83;24.94;100243.78;3576624;40;20033;-70
2021/04/19 10:02:40;;;;;;;9.32;7.60;;;;;;;26.10;25.14;100244.28;3578123;40;20416;-69
2021/04/19 10:05:09;;;;;;;8.85;7.03;;;;;;;25.43;25.48;100241.22;3578044;40;20041;-69
2021/04/19 10:07:40;;;;;;;10.18;7.60;;;;;;;24.85;25.88;100243.47;3576601;40;20041;-70
2021/04/19 10:10:09;;;;;;;10.10;7.28;;;;;;;24.24;25.70;100233.28;3573978;40;20038;-69
2021/04/19 10:12:41;;;;;;;10.85;7.80;;;;;;;23.74;26.03;100249.63;3578200;40;20045;-69
2021/04/19 10:15:15;;;;;;;8.73;7.50;;;;;;;23.18;26.76;100238.78;3577938;40;20033;-69
2021/04/19 10:17:43;;;;;;;10.40;6.90;;;;;;;23.13;27.54;100249.06;3577628;40;20056;-69
2021/04/19 10:20:18;;;;;;;10.32;8.25;;;;;;;22.81;27.36;100242.06;3577196;40;20036;-70
2021/04/19 10:22:46;;;;;;;11.20;8.10;;;;;;;22.89;27.41;100244.06;3574339;40;20047;-67
2021/04/19 10:25:13;;;;;;;8.75;7.28;;;;;;;22.66;27.89;100238.91;3576108;40;20044;-69
2021/04/19 10:27:40;;;;;;;11.93;7.95;;;;;;;22.15;27.69;100245.19;3576527;40;20425;-68
2021/04/19 10:30:12;;;;;;;10.30;7.80;;;;;;;22.09;28.51;100232.38;3582896;40;20088;-69
2021/04/19 10:32:38;;;;;;;13.30;7.53;;;;;;;22.10;28.47;100233.22;3575084;40;20031;-69
2021/04/19 10:35:30;;;;;;;12.75;7.78;;;;;;;22.08;28.37;100227.19;3581985;40;20041;-69
2021/04/19 10:37:58;;;;;;;8.65;7.15;;;;;;;22.12;28.10;100224.09;3576332;40;20042;-69
2021/04/19 10:40:24;;;;;;;9.88;6.70;;;;;;;22.07;28.03;100236.13;3576053;40;20029;-70
2021/04/19 10:42:51;;;;;;;14.20;7.72;;;;;;;21.94;28.27;100224.81;3576441;40;20044;-69
2021/04/19 10:45:19;;;;;;;11.63;7.82;;;;;;;21.66;28.24;100227.19;3575383;40;20130;-69
2021/04/19 10:47:45;;;;;;;8.10;6.10;;;;;;;21.75;27.53;100228.22;3576767;40;20044;-69
2021/04/19 10:50:12;;;;;;;13.00;8.57;;;;;;;21.68;27.93;100229.72;3574657;40;20081;-70
2021/04/19 10:52:39;;;;;;;11.07;7.05;;;;;;;21.38;28.30;100223.31;3577843;40;20030;-69
2021/04/19 10:55:09;;;;;;;11.45;7.07;;;;;;;21.28;28.73;100217.06;3576826;40;20069;-70
2021/04/19 10:57:36;;;;;;;7.88;6.53;;;;;;;21.38;28.94;100223.31;3575399;40;20376;-70
2021/04/19 11:00:06;;;;;;;9.88;6.47;;;;;;;21.46;28.54;100217.34;3574184;40;20122;-69
2021/04/19 11:02:33;;;;;;;7.63;6.07;;;;;;;21.37;28.40;100221.63;3577095;40;20402;-69
2021/04/19 11:05:00;;;;;;;8.77;6.32;;;;;;;21.33;28.32;100222.84;3576639;40;20394;-69
2021/04/19 11:07:28;;;;;;;10.07;6.32;;;;;;;21.26;28.21;100222.53;3573529;40;20045;-69
2021/04/19 11:10:13;;;;;;;9.07;6.07;;;;;;;21.14;28.19;100225.31;3575522;40;20051;-69
2021/04/19 11:12:40;;;;;;;9.98;6.13;;;;;;;21.18;28.08;100216.94;3577411;40;20029;-68
2021/04/19 11:15:13;;;;;;;6.88;5.68;;;;;;;21.00;28.30;100216.63;3575980;40;20330;-69
2021/04/19 11:17:40;;;;;;;8.60;6.28;;;;;;;20.96;28.15;100212.53;3575356;40;20144;-68
2021/04/19 11:20:19;;;;;;;7.20;5.50;;;;;;;21.09;27.50;100200.88;3574199;40;20036;-70
2021/04/19 11:22:47;;;;;;;10.88;5.43;;;;;;;21.13;27.46;100218.31;3576777;40;20048;-69